createdAt,value
2018-06-29T00:01:16.831Z,67.12
2018-06-29T00:03:43.861Z,67.08
2018-06-29T00:06:10.916Z,67.44
2018-06-29T00:08:37.930Z,68.17
2018-06-29T00:11:05.025Z,69.28
2018-06-29T00:13:32.083Z,69.05
2018-06-29T00:15:59.248Z,69.13
2018-06-29T00:18:26.257Z,69.55
2018-06-29T00:20:53.298Z,68.45
2018-06-29T00:23:20.843Z,69.92
2018-06-29T00:25:48.043Z,69.69
2018-06-29T00:28:15.142Z,70.37
2018-06-29T00:30:42.258Z,70.64
2018-06-29T00:33:09.372Z,70.59
2018-06-29T00:35:36.469Z,70.50
2018-06-29T00:38:03.519Z,70.88
2018-06-29T00:40:30.661Z,71.73
2018-06-29T00:42:57.696Z,71.57
2018-06-29T00:45:24.764Z,71.58
2018-06-29T00:47:51.786Z,72.23
2018-06-29T00:50:18.825Z,71.64
2018-06-29T00:52:45.930Z,72.40
2018-06-29T00:55:12.994Z,73.49
2018-06-29T00:57:40.003Z,73.12
2018-06-29T01:00:08.145Z,73.83
2018-06-29T01:02:35.465Z,73.84
2018-06-29T01:05:02.549Z,74.82
2018-06-29T01:07:29.659Z,75.25
2018-06-29T01:09:56.665Z,75.24
2018-06-29T01:12:23.794Z,75.74
2018-06-29T01:14:50.840Z,75.37
2018-06-29T01:17:17.872Z,75.81
2018-06-29T01:19:44.973Z,75.11
2018-06-29T01:22:12.329Z,75.40
2018-06-29T01:24:39.341Z,75.88
2018-06-29T01:27:06.346Z,75.78
2018-06-29T01:29:33.475Z,76.93
2018-06-29T01:32:00.486Z,76.77
2018-06-29T01:34:27.681Z,77.88
2018-06-29T01:36:54.764Z,76.54
2018-06-29T01:39:22.076Z,77.04
2018-06-29T01:41:49.104Z,77.15
2018-06-29T01:44:16.149Z,77.48
2018-06-29T01:46:43.397Z,77.79
2018-06-29T01:49:10.438Z,77.45
2018-06-29T01:51:37.605Z,77.00
2018-06-29T01:54:04.690Z,77.48
2018-06-29T01:56:31.756Z,77.46
2018-06-29T01:58:58.768Z,77.07
2018-06-29T02:01:25.806Z,78.33
2018-06-29T02:03:52.985Z,78.36
2018-06-29T02:06:20.112Z,78.64
2018-06-29T02:08:47.144Z,79.19
2018-06-29T02:11:14.202Z,79.50
2018-06-29T02:13:41.202Z,80.00
2018-06-29T02:16:08.211Z,79.79
2018-06-29T02:18:35.363Z,79.98
2018-06-29T02:21:02.449Z,80.23
2018-06-29T02:23:29.554Z,80.26
2018-06-29T02:25:56.587Z,80.77
2018-06-29T02:28:23.602Z,81.27
2018-06-29T02:30:50.730Z,81.66
2018-06-29T02:33:17.658Z,81.35
2018-06-29T02:35:44.671Z,82.36
2018-06-29T02:38:18.059Z,81.66
2018-06-29T02:40:45.235Z,81.43
2018-06-29T02:43:12.269Z,81.56
2018-06-29T02:45:39.269Z,81.78
2018-06-29T02:48:06.356Z,82.51
2018-06-29T02:50:33.406Z,83.15
2018-06-29T02:53:00.422Z,83.66
2018-06-29T02:55:27.522Z,83.04
2018-06-29T02:57:54.551Z,82.97
2018-06-29T03:00:21.594Z,83.44
2018-06-29T03:02:48.773Z,84.24
2018-06-29T03:05:15.889Z,84.97
2018-06-29T03:07:42.991Z,85.70
2018-06-29T03:10:10.038Z,85.79
2018-06-29T03:12:37.040Z,85.52
2018-06-29T03:15:04.379Z,85.45
2018-06-29T03:17:31.390Z,85.83
2018-06-29T03:19:58.430Z,85.50
2018-06-29T03:22:25.481Z,86.28
2018-06-29T03:24:52.512Z,86.77
2018-06-29T03:27:19.547Z,86.67
2018-06-29T03:29:46.622Z,87.78
2018-06-29T03:32:13.796Z,88.56
2018-06-29T03:34:40.825Z,88.67
2018-06-29T03:37:07.831Z,89.32
2018-06-29T03:39:34.933Z,89.53
2018-06-29T03:42:02.027Z,89.55
2018-06-29T03:44:29.073Z,89.38
2018-06-29T03:46:56.070Z,89.74
2018-06-29T03:49:23.113Z,90.05
2018-06-29T03:51:50.137Z,90.00
2018-06-29T03:54:17.244Z,90.55
2018-06-29T03:56:44.265Z,90.57
2018-06-29T03:59:11.694Z,90.89
2018-06-29T04:01:38.818Z,90.61
2018-06-29T04:04:06.093Z,90.52
2018-06-29T04:06:33.250Z,91.16
2018-06-29T04:09:00.305Z,91.05
2018-06-29T04:11:27.337Z,90.95
2018-06-29T04:13:54.768Z,91.55
2018-06-29T04:16:21.921Z,91.27
2018-06-29T04:18:48.941Z,91.83
2018-06-29T04:21:15.941Z,91.83
2018-06-29T04:23:42.993Z,91.54
2018-06-29T04:26:10.003Z,91.63
2018-06-29T04:28:37.092Z,92.21
2018-06-29T04:31:04.196Z,91.71
2018-06-29T04:33:31.434Z,90.54
2018-06-29T04:35:58.437Z,90.37
2018-06-29T04:38:25.450Z,90.05
2018-06-29T04:40:52.502Z,89.24
2018-06-29T04:43:19.659Z,88.82
2018-06-29T04:45:46.689Z,89.60
2018-06-29T04:48:13.773Z,89.39
2018-06-29T04:50:40.801Z,88.31
2018-06-29T04:53:07.899Z,88.23
2018-06-29T04:55:34.934Z,87.80
2018-06-29T04:58:01.988Z,87.60
2018-06-29T05:00:29.126Z,87.24
2018-06-29T05:02:56.181Z,87.05
2018-06-29T05:05:23.733Z,86.65
2018-06-29T05:07:50.763Z,85.62
2018-06-29T05:10:17.807Z,85.61
2018-06-29T05:12:44.867Z,85.33
2018-06-29T05:15:11.921Z,85.30
2018-06-29T05:17:38.952Z,85.52
2018-06-29T05:20:12.281Z,85.23
2018-06-29T05:22:39.656Z,85.38
2018-06-29T05:25:06.699Z,85.17
2018-06-29T05:27:33.790Z,84.13
2018-06-29T05:30:00.844Z,84.12
2018-06-29T05:32:27.942Z,83.66
2018-06-29T05:34:55.001Z,83.30
2018-06-29T05:37:22.838Z,83.20
2018-06-29T05:39:50.025Z,82.84
2018-06-29T05:42:17.291Z,82.50
2018-06-29T05:44:44.634Z,82.56
2018-06-29T05:47:11.670Z,82.71
2018-06-29T05:49:38.673Z,82.45
2018-06-29T05:52:05.799Z,81.98
2018-06-29T05:54:32.833Z,81.95
2018-06-29T05:57:00.195Z,80.99
2018-06-29T05:59:27.269Z,81.21
2018-06-29T06:01:54.377Z,80.18
2018-06-29T06:04:21.393Z,80.74
2018-06-29T06:06:55.545Z,80.16
2018-06-29T06:09:22.563Z,80.05
2018-06-29T06:11:49.740Z,80.12
2018-06-29T06:14:16.776Z,79.58
2018-06-29T06:16:43.813Z,79.04
2018-06-29T06:19:22.501Z,78.84
2018-06-29T06:21:49.552Z,78.48
2018-06-29T06:24:16.792Z,78.82
2018-06-29T06:26:43.825Z,76.61
2018-06-29T06:29:10.843Z,76.51
2018-06-29T06:31:37.951Z,76.92
2018-06-29T06:34:05.084Z,74.44
2018-06-29T06:36:32.549Z,75.76
2018-06-29T06:38:59.582Z,74.53
2018-06-29T06:41:26.630Z,73.74
2018-06-29T06:43:54.167Z,74.23
2018-06-29T06:46:21.196Z,72.36
2018-06-29T06:48:48.314Z,70.75
2018-06-29T06:51:15.350Z,71.53
2018-06-29T06:53:42.534Z,71.65
2018-06-29T06:56:09.504Z,71.54
2018-06-29T06:58:36.542Z,70.39
2018-06-29T07:01:03.793Z,68.98
2018-06-29T07:03:30.821Z,68.80
2018-06-29T07:05:57.970Z,68.00
2018-06-29T07:08:24.989Z,68.45
2018-06-29T07:10:52.010Z,67.08
2018-06-29T07:13:19.124Z,66.83
2018-06-29T07:15:46.141Z,66.99
2018-06-29T07:18:13.224Z,67.75
2018-06-29T07:20:40.316Z,66.79
2018-06-29T07:23:07.571Z,67.07
2018-06-29T07:25:34.590Z,65.59
2018-06-29T07:28:01.786Z,66.21
2018-06-29T07:30:28.816Z,67.91
2018-06-29T07:32:55.825Z,65.96
2018-06-29T07:35:22.868Z,67.14
2018-06-29T07:37:49.996Z,64.22
2018-06-29T07:40:17.025Z,64.50
2018-06-29T07:42:44.113Z,64.02
2018-06-29T07:45:11.120Z,65.12
2018-06-29T07:47:38.295Z,64.24
2018-06-29T07:50:05.325Z,61.95
2018-06-29T07:52:32.398Z,62.96
2018-06-29T07:54:59.391Z,63.25
2018-06-29T07:57:26.475Z,63.81
2018-06-29T07:59:53.518Z,62.51
2018-06-29T08:02:20.573Z,63.17
2018-06-29T08:04:47.611Z,62.97
2018-06-29T08:07:14.653Z,63.22
2018-06-29T08:09:41.762Z,61.77
2018-06-29T08:12:08.854Z,62.69
2018-06-29T08:14:35.880Z,63.55
2018-06-29T08:17:03.040Z,62.31
2018-06-29T08:20:18.758Z,63.93
2018-06-29T08:22:45.931Z,63.88
2018-06-29T08:25:14.237Z,64.17
2018-06-29T08:27:41.487Z,62.25
2018-06-29T08:30:09.445Z,61.70
2018-06-29T08:32:36.741Z,64.13
2018-06-29T08:35:03.808Z,62.77
2018-06-29T08:37:30.846Z,62.83
2018-06-29T08:39:58.017Z,62.29
2018-06-29T08:42:25.071Z,62.88
2018-06-29T08:44:52.106Z,62.50
2018-06-29T08:47:19.484Z,59.80
2018-06-29T08:49:46.509Z,61.08
2018-06-29T08:52:20.598Z,61.30
2018-06-29T08:54:47.608Z,62.20
2018-06-29T08:57:15.065Z,61.71
2018-06-29T08:59:42.169Z,61.52
2018-06-29T09:02:09.203Z,61.80
2018-06-29T09:04:36.206Z,61.86
2018-06-29T09:07:03.328Z,61.74
2018-06-29T09:09:30.611Z,60.62
2018-06-29T09:11:58.418Z,60.89
2018-06-29T09:14:25.565Z,60.13
2018-06-29T09:16:53.002Z,59.43
2018-06-29T09:19:20.063Z,59.42
2018-06-29T09:21:47.133Z,59.89
2018-06-29T09:24:14.435Z,60.60
2018-06-29T09:26:42.036Z,59.42
2018-06-29T09:29:09.141Z,60.63
2018-06-29T09:31:36.320Z,58.43
2018-06-29T09:34:03.398Z,58.76
2018-06-29T09:36:30.841Z,57.37
2018-06-29T09:38:57.858Z,57.34
2018-06-29T09:41:24.897Z,57.33
2018-06-29T09:43:51.953Z,57.18
2018-06-29T09:46:18.986Z,59.35
2018-06-29T09:48:46.084Z,59.07
2018-06-29T09:51:13.239Z,57.29
2018-06-29T09:53:40.273Z,57.36
2018-06-29T09:56:07.467Z,57.00
2018-06-29T09:58:34.641Z,56.96
2018-06-29T10:01:01.668Z,57.33
2018-06-29T10:03:28.736Z,57.73
2018-06-29T10:05:55.833Z,55.48
2018-06-29T10:08:22.878Z,56.02
2018-06-29T10:10:49.985Z,55.25
2018-06-29T10:13:17.012Z,53.53
2018-06-29T10:15:44.106Z,54.24
2018-06-29T10:18:11.157Z,53.32
2018-06-29T10:20:38.686Z,53.28
2018-06-29T10:23:05.918Z,53.58
2018-06-29T10:26:01.372Z,52.37
2018-06-29T10:28:33.434Z,51.73
2018-06-29T10:31:02.415Z,53.21
2018-06-29T10:33:37.152Z,51.38
2018-06-29T10:36:10.863Z,52.21
2018-06-29T10:38:46.232Z,50.39
2018-06-29T10:41:24.912Z,50.89
2018-06-29T10:43:57.457Z,49.06
2018-06-29T10:46:25.989Z,48.76
2018-06-29T10:48:56.528Z,48.78
2018-06-29T10:51:30.680Z,49.92
2018-06-29T10:54:05.416Z,50.01
2018-06-29T10:59:40.447Z,49.50
2018-06-29T11:02:13.426Z,48.58
2018-06-29T11:04:47.401Z,49.87
2018-06-29T11:07:16.483Z,50.54
2018-06-29T11:09:46.208Z,51.22
2018-06-29T11:12:17.537Z,51.19
2018-06-29T11:14:52.586Z,50.44
2018-06-29T11:17:28.471Z,51.02
2018-06-29T11:19:57.769Z,51.18
2018-06-29T11:22:31.827Z,52.21
2018-06-29T11:25:03.970Z,50.50
2018-06-29T11:27:37.565Z,51.02
2018-06-29T11:30:13.530Z,52.09
2018-06-29T11:32:47.666Z,52.20
2018-06-29T11:35:17.017Z,51.32
2018-06-29T11:38:03.072Z,52.68
2018-06-29T11:40:38.826Z,51.58
2018-06-29T11:43:17.605Z,51.55
2018-06-29T11:45:55.314Z,51.54
2018-06-29T11:48:31.352Z,49.18
2018-06-29T11:51:06.077Z,50.71
2018-06-29T11:53:37.719Z,50.32
2018-06-29T11:56:10.514Z,50.30
2018-06-29T11:58:38.068Z,48.81
2018-06-29T12:01:13.739Z,49.94
2018-06-29T12:03:46.862Z,49.98
2018-06-29T12:08:57.117Z,48.58
2018-06-29T12:11:27.401Z,49.51
2018-06-29T12:13:54.601Z,48.47
2018-06-29T12:16:21.672Z,47.47
2018-06-29T12:18:48.703Z,48.25
2018-06-29T12:21:15.717Z,48.06
2018-06-29T12:23:43.023Z,48.40
2018-06-29T12:26:10.058Z,47.66
2018-06-29T12:28:37.122Z,47.25
2018-06-29T12:31:04.209Z,46.62
2018-06-29T12:33:31.380Z,46.71
2018-06-29T12:35:58.422Z,44.81
2018-06-29T12:38:25.600Z,45.75
2018-06-29T12:40:52.693Z,43.74
2018-06-29T12:43:19.962Z,44.85
2018-06-29T12:45:46.983Z,44.66
2018-06-29T12:48:14.066Z,43.31
2018-06-29T12:50:41.205Z,44.09
2018-06-29T12:53:08.252Z,45.10
2018-06-29T12:55:35.506Z,45.70
2018-06-29T12:58:02.712Z,43.53
2018-06-29T13:00:29.743Z,42.60
2018-06-29T13:02:56.764Z,41.41
2018-06-29T13:05:23.904Z,41.10
2018-06-29T13:07:51.002Z,41.19
2018-06-29T13:10:18.039Z,41.55
2018-06-29T13:12:45.066Z,39.14
2018-06-29T13:15:12.132Z,40.24
2018-06-29T13:17:39.153Z,40.74
2018-06-29T13:20:07.085Z,41.49
2018-06-29T13:22:34.145Z,42.17
2018-06-29T13:25:01.211Z,42.49
2018-06-29T13:27:28.328Z,41.83
2018-06-29T13:29:55.346Z,40.35
2018-06-29T13:32:22.622Z,40.78
2018-06-29T13:34:49.658Z,39.13
2018-06-29T13:37:16.793Z,39.23
2018-06-29T13:39:44.015Z,40.73
2018-06-29T13:42:11.125Z,38.71
2018-06-29T13:44:38.175Z,40.64
2018-06-29T13:47:05.229Z,39.90
2018-06-29T13:49:32.321Z,40.28
2018-06-29T13:51:59.345Z,39.39
2018-06-29T13:54:26.365Z,39.42
2018-06-29T13:56:53.494Z,39.47
2018-06-29T13:59:20.622Z,39.47
2018-06-29T14:01:47.668Z,38.88
2018-06-29T14:04:14.826Z,38.62
2018-06-29T14:06:41.936Z,37.35
2018-06-29T14:09:09.065Z,36.90
2018-06-29T14:11:36.094Z,36.10
2018-06-29T14:14:03.169Z,36.27
2018-06-29T14:16:30.273Z,36.85
2018-06-29T14:18:57.294Z,36.62
2018-06-29T14:21:24.319Z,37.00
2018-06-29T14:23:51.444Z,37.08
2018-06-29T14:26:18.485Z,36.68
2018-06-29T14:28:45.573Z,37.23
2018-06-29T14:31:12.670Z,38.01
2018-06-29T14:33:39.796Z,38.41
2018-06-29T14:36:06.898Z,38.91
2018-06-29T14:38:33.962Z,38.68
2018-06-29T14:41:01.059Z,37.68
2018-06-29T14:43:28.014Z,37.00
2018-06-29T14:45:55.227Z,36.54
2018-06-29T14:48:22.252Z,34.98
2018-06-29T14:50:49.348Z,36.17
2018-06-29T14:53:16.393Z,35.89
2018-06-29T14:55:43.441Z,33.45
2018-06-29T14:58:10.469Z,33.02
2018-06-29T15:00:37.532Z,32.81
2018-06-29T15:03:04.677Z,32.13
2018-06-29T15:05:31.811Z,32.30
2018-06-29T15:07:58.916Z,31.65
2018-06-29T15:10:26.021Z,32.61
2018-06-29T15:12:53.035Z,33.47
2018-06-29T15:15:20.073Z,32.20
2018-06-29T15:17:47.146Z,33.23
2018-06-29T15:20:14.176Z,33.46
2018-06-29T15:22:41.195Z,34.52
2018-06-29T15:25:08.749Z,34.96
2018-06-29T15:27:35.857Z,34.96
2018-06-29T15:30:04.040Z,33.38
2018-06-29T15:32:31.062Z,33.79
2018-06-29T15:34:58.129Z,33.98
2018-06-29T15:37:25.170Z,34.31
2018-06-29T15:39:52.317Z,33.88
2018-06-29T15:42:19.399Z,32.77
2018-06-29T15:44:46.509Z,32.54
2018-06-29T15:47:13.597Z,34.05
2018-06-29T15:49:40.703Z,34.90
2018-06-29T15:52:07.813Z,34.95
2018-06-29T15:54:34.912Z,33.08
2018-06-29T15:57:01.961Z,33.88
2018-06-29T15:59:29.035Z,35.60
2018-06-29T16:01:56.072Z,35.89
2018-06-29T16:04:23.107Z,37.10
2018-06-29T16:06:50.254Z,38.69
2018-06-29T16:09:17.366Z,38.64
2018-06-29T16:13:56.081Z,40.68
2018-06-29T16:16:23.095Z,42.28
2018-06-29T16:18:50.116Z,42.58
2018-06-29T16:21:17.241Z,43.54
2018-06-29T16:23:44.287Z,42.79
2018-06-29T16:26:11.347Z,43.31
2018-06-29T16:28:38.374Z,43.22
2018-06-29T16:31:05.416Z,43.38
2018-06-29T16:33:32.703Z,43.06
2018-06-29T16:35:59.800Z,42.71
2018-06-29T16:38:26.912Z,43.25
2018-06-29T16:40:54.023Z,44.24
2018-06-29T16:43:21.066Z,44.60
2018-06-29T16:45:48.113Z,43.70
2018-06-29T16:48:15.234Z,42.96
2018-06-29T16:50:42.316Z,43.72
2018-06-29T16:53:09.369Z,43.93
2018-06-29T16:55:36.394Z,43.29
2018-06-29T16:58:03.533Z,42.60
2018-06-29T17:00:30.889Z,44.04
2018-06-29T17:02:57.895Z,45.60
2018-06-29T17:05:25.045Z,45.51
2018-06-29T17:07:52.085Z,45.94
2018-06-29T17:10:19.185Z,47.22
2018-06-29T17:12:46.202Z,48.15
2018-06-29T17:15:13.260Z,47.53
2018-06-29T17:17:40.388Z,47.86
2018-06-29T17:20:07.672Z,47.67
2018-06-29T17:22:34.936Z,47.08
2018-06-29T17:25:01.977Z,47.62
2018-06-29T17:27:28.977Z,48.91
2018-06-29T17:29:55.999Z,48.28
2018-06-29T17:32:23.045Z,50.20
2018-06-29T17:34:50.066Z,50.87
2018-06-29T17:37:17.224Z,50.49
2018-06-29T17:39:44.350Z,52.06
2018-06-29T17:42:11.365Z,53.05
2018-06-29T17:44:38.515Z,53.32
2018-06-29T17:47:05.613Z,54.19
2018-06-29T17:49:32.741Z,54.75
2018-06-29T17:51:59.785Z,54.99
2018-06-29T17:54:26.805Z,56.19
2018-06-29T17:56:53.814Z,55.96
2018-06-29T17:59:20.913Z,56.44
2018-06-29T18:01:48.015Z,57.04
2018-06-29T18:04:15.229Z,57.41
2018-06-29T18:06:42.221Z,57.74
2018-06-29T18:09:10.451Z,57.38
2018-06-29T18:11:37.568Z,57.52
2018-06-29T18:14:04.707Z,58.27
2018-06-29T18:16:31.790Z,58.68
2018-06-29T18:18:58.923Z,59.03
2018-06-29T18:21:26.003Z,58.98
2018-06-29T18:23:53.046Z,59.34
2018-06-29T18:26:20.052Z,59.44
2018-06-29T18:28:47.259Z,59.76
2018-06-29T18:31:14.351Z,60.26
2018-06-29T18:33:41.473Z,60.31
2018-06-29T18:36:08.497Z,59.81
2018-06-29T18:38:35.493Z,60.98
2018-06-29T18:41:02.509Z,61.68
2018-06-29T18:43:29.589Z,61.87
2018-06-29T18:45:56.624Z,62.01
2018-06-29T18:48:23.694Z,62.17
2018-06-29T18:50:50.733Z,63.00
2018-06-29T18:53:17.830Z,62.83
2018-06-29T18:55:44.902Z,63.18
2018-06-29T18:58:11.921Z,63.66
2018-06-29T19:00:39.009Z,63.25
2018-06-29T19:03:06.030Z,63.47
2018-06-29T19:05:33.148Z,64.30
2018-06-29T19:08:00.265Z,64.35
2018-06-29T19:10:27.304Z,63.98
2018-06-29T19:12:54.305Z,64.08
2018-06-29T19:15:21.374Z,64.37
2018-06-29T19:17:48.477Z,65.49
2018-06-29T19:20:15.605Z,65.59
2018-06-29T19:22:42.701Z,65.58
2018-06-29T19:25:09.770Z,65.38
2018-06-29T19:27:36.812Z,66.27
2018-06-29T19:30:04.499Z,65.02
2018-06-29T19:32:31.501Z,65.29
2018-06-29T19:34:58.507Z,65.13
2018-06-29T19:37:25.626Z,65.43
2018-06-29T19:39:52.658Z,65.88
2018-06-29T19:42:19.673Z,65.31
2018-06-29T19:44:46.826Z,63.80
2018-06-29T19:47:13.866Z,65.93
2018-06-29T19:49:41.135Z,64.40
2018-06-29T19:52:08.355Z,65.29
2018-06-29T19:54:35.389Z,64.14
2018-06-29T19:57:02.496Z,65.67
2018-06-29T19:59:29.900Z,64.18
2018-06-29T20:01:57.085Z,64.61
2018-06-29T20:04:24.143Z,63.55
2018-06-29T20:06:51.254Z,62.84
2018-06-29T20:09:18.374Z,63.74
2018-06-29T20:11:45.452Z,63.40
2018-06-29T20:14:13.558Z,64.02
2018-06-29T20:16:40.584Z,63.05
2018-06-29T20:19:07.633Z,63.77
2018-06-29T20:21:34.753Z,64.15
2018-06-29T20:24:01.785Z,63.42
2018-06-29T20:26:28.785Z,64.06
2018-06-29T20:28:55.798Z,63.91
2018-06-29T20:31:22.896Z,63.82
2018-06-29T20:33:50.022Z,63.58
2018-06-29T20:36:17.044Z,63.31
2018-06-29T20:38:44.229Z,63.36
2018-06-29T20:41:11.158Z,63.64
2018-06-29T20:43:38.314Z,64.92
2018-06-29T20:46:05.277Z,63.79
2018-06-29T20:48:32.574Z,63.75
2018-06-29T20:50:59.654Z,64.18
2018-06-29T20:53:26.729Z,64.08
2018-06-29T20:55:53.936Z,64.83
2018-06-29T20:58:20.977Z,64.94
2018-06-29T21:00:48.075Z,65.02
2018-06-29T21:03:15.117Z,65.70
2018-06-29T21:05:42.119Z,66.15
2018-06-29T21:08:09.381Z,66.33
2018-06-29T21:10:36.551Z,64.54
2018-06-29T21:13:03.650Z,65.77
2018-06-29T21:15:30.675Z,65.01
2018-06-29T21:17:57.758Z,65.27
2018-06-29T21:20:24.777Z,64.72
2018-06-29T21:22:51.866Z,65.51
2018-06-29T21:25:18.962Z,64.90
2018-06-29T21:27:45.937Z,64.99
2018-06-29T21:30:12.970Z,63.83
2018-06-29T21:32:40.186Z,63.76
2018-06-29T21:35:07.340Z,65.10
2018-06-29T21:37:34.465Z,64.27
2018-06-29T21:40:01.482Z,63.89
2018-06-29T21:42:28.555Z,63.95
2018-06-29T21:44:55.696Z,64.10
2018-06-29T21:47:22.886Z,63.96
2018-06-29T21:49:49.905Z,63.51
2018-06-29T21:52:17.092Z,64.90
2018-06-29T21:54:44.335Z,63.65
2018-06-29T21:57:11.540Z,63.92
2018-06-29T21:59:38.541Z,64.69
2018-06-29T22:02:05.707Z,65.03
2018-06-29T22:04:32.717Z,64.74
2018-06-29T22:06:59.738Z,65.17
2018-06-29T22:09:26.777Z,65.16
2018-06-29T22:11:53.808Z,65.14
2018-06-29T22:14:20.849Z,65.57
2018-06-29T22:16:47.932Z,66.38
2018-06-29T22:19:15.090Z,66.88
2018-06-29T22:21:42.175Z,66.68
2018-06-29T22:24:09.185Z,66.81
2018-06-29T22:26:36.262Z,68.49
2018-06-29T22:29:03.461Z,67.89
2018-06-29T22:31:30.473Z,68.60
2018-06-29T22:33:57.728Z,68.95
2018-06-29T22:36:26.249Z,69.28
2018-06-29T22:38:53.370Z,69.65
2018-06-29T22:41:20.432Z,70.10
2018-06-29T22:43:47.534Z,70.49
2018-06-29T22:46:14.654Z,70.71
2018-06-29T22:48:41.749Z,71.09
2018-06-29T22:51:08.800Z,71.60
2018-06-29T22:53:35.901Z,71.75
2018-06-29T22:56:02.989Z,72.32
2018-06-29T22:58:30.177Z,72.87
2018-06-29T23:00:57.264Z,72.50
2018-06-29T23:03:28.873Z,72.50
2018-06-29T23:05:55.899Z,73.44
2018-06-29T23:08:23.085Z,73.51
2018-06-29T23:10:50.189Z,74.05
2018-06-29T23:13:17.197Z,74.92
2018-06-29T23:15:44.228Z,75.53
2018-06-29T23:18:11.418Z,75.98
2018-06-29T23:20:38.502Z,75.68
2018-06-29T23:23:05.613Z,75.55
2018-06-29T23:25:32.621Z,75.95
2018-06-29T23:27:59.721Z,76.48
2018-06-29T23:30:26.834Z,76.96
2018-06-29T23:32:53.884Z,77.63
2018-06-29T23:35:20.897Z,78.20
2018-06-29T23:37:47.931Z,78.73
2018-06-29T23:40:14.947Z,78.20
2018-06-29T23:42:41.989Z,78.45
2018-06-29T23:45:09.073Z,78.07
2018-06-29T23:47:36.176Z,78.73
2018-06-29T23:50:03.242Z,78.94
2018-06-29T23:52:30.651Z,79.48
2018-06-29T23:54:57.672Z,80.17
2018-06-29T23:57:24.754Z,80.47
2018-06-29T23:59:51.867Z,81.45
